createdAt,value
2019-04-27T00:04:11.738Z,230.37
2019-04-27T00:08:40.128Z,228.00
2019-04-27T00:12:50.432Z,226.10
2019-04-27T00:17:06.200Z,232.10
2019-04-27T00:21:18.130Z,232.77
2019-04-27T00:25:28.963Z,238.87
2019-04-27T00:29:39.473Z,244.87
2019-04-27T00:33:54.354Z,233.97
2019-04-27T00:38:13.064Z,237.57
2019-04-27T00:42:24.739Z,237.63
2019-04-27T00:46:35.081Z,237.10
2019-04-27T00:50:45.657Z,241.93
2019-04-27T00:54:59.007Z,236.23
2019-04-27T00:59:11.061Z,233.77
2019-04-27T01:03:27.744Z,235.57
2019-04-27T01:07:38.598Z,239.93
2019-04-27T01:11:49.113Z,240.13
2019-04-27T01:16:00.015Z,235.23
2019-04-27T01:20:10.591Z,235.10
2019-04-27T01:24:23.376Z,238.60
2019-04-27T01:28:41.264Z,239.87
2019-04-27T01:32:54.846Z,241.27
2019-04-27T01:37:05.173Z,236.00
2019-04-27T01:41:15.493Z,231.77
2019-04-27T01:45:25.914Z,247.33
2019-04-27T01:49:36.220Z,246.97
2019-04-27T01:53:46.573Z,246.30
2019-04-27T01:57:58.525Z,245.60
2019-04-27T02:02:19.436Z,241.77
2019-04-27T02:06:30.000Z,243.37
2019-04-27T02:10:40.472Z,244.13
2019-04-27T02:14:50.873Z,238.07
2019-04-27T02:19:01.286Z,248.03
2019-04-27T02:23:11.582Z,247.57
2019-04-27T02:27:24.817Z,244.20
2019-04-27T02:31:51.573Z,241.13
2019-04-27T02:36:01.774Z,242.53
2019-04-27T02:40:42.359Z,239.47
2019-04-27T02:44:50.786Z,244.73
2019-04-27T02:49:06.515Z,247.90
2019-04-27T02:53:14.193Z,249.13
2019-04-27T02:57:29.734Z,247.97
2019-04-27T03:01:47.014Z,249.57
2019-04-27T03:05:59.820Z,249.27
2019-04-27T03:10:10.020Z,251.53
2019-04-27T03:14:32.398Z,257.23
2019-04-27T03:18:43.196Z,255.20
2019-04-27T03:22:55.116Z,253.93
2019-04-27T03:27:09.620Z,251.03
2019-04-27T03:31:21.575Z,261.07
2019-04-27T03:35:35.678Z,261.57
2019-04-27T03:39:43.959Z,251.77
2019-04-27T03:43:59.378Z,255.90
2019-04-27T03:48:10.656Z,248.73
2019-04-27T03:52:29.932Z,253.17
2019-04-27T03:56:46.179Z,255.50
2019-04-27T04:01:03.899Z,261.77
2019-04-27T04:05:15.055Z,266.30
2019-04-27T04:09:29.552Z,257.73
2019-04-27T04:13:41.466Z,249.87
2019-04-27T04:17:54.193Z,241.57
2019-04-27T04:22:04.614Z,254.90
2019-04-27T04:26:15.038Z,252.60
2019-04-27T04:30:25.362Z,252.70
2019-04-27T04:34:36.902Z,245.60
2019-04-27T04:38:47.372Z,251.60
2019-04-27T04:43:03.859Z,252.43
2019-04-27T04:47:16.378Z,252.23
2019-04-27T04:51:30.506Z,250.63
2019-04-27T04:55:42.096Z,253.17
2019-04-27T04:59:54.081Z,250.60
2019-04-27T05:04:04.691Z,243.07
2019-04-27T05:08:15.339Z,245.77
2019-04-27T05:12:28.648Z,252.53
2019-04-27T05:16:39.859Z,250.90
2019-04-27T05:21:08.754Z,288.67
2019-04-27T05:25:20.535Z,246.80
2019-04-27T05:29:32.458Z,245.27
2019-04-27T05:33:45.381Z,251.87
2019-04-27T05:37:56.268Z,245.27
2019-04-27T05:42:12.541Z,243.10
2019-04-27T05:46:41.803Z,249.93
2019-04-27T05:50:58.905Z,252.13
2019-04-27T05:55:06.779Z,255.10
2019-04-27T05:59:19.257Z,263.83
2019-04-27T06:03:30.875Z,256.00
2019-04-27T06:07:41.985Z,248.90
2019-04-27T06:11:53.962Z,248.63
2019-04-27T06:16:06.499Z,247.33
2019-04-27T06:20:16.935Z,253.60
2019-04-27T06:24:29.700Z,253.10
2019-04-27T06:28:41.421Z,253.37
2019-04-27T06:32:51.768Z,245.00
2019-04-27T06:37:02.086Z,250.43
2019-04-27T06:41:13.110Z,251.07
2019-04-27T06:45:23.524Z,251.40
2019-04-27T06:49:33.881Z,251.33
2019-04-27T06:53:45.568Z,247.80
2019-04-27T06:57:56.672Z,250.37
2019-04-27T07:02:09.830Z,246.63
2019-04-27T07:06:20.159Z,250.90
2019-04-27T07:10:33.059Z,255.03
2019-04-27T07:14:54.375Z,250.60
2019-04-27T07:18:59.324Z,255.73
2019-04-27T07:23:10.961Z,261.23
2019-04-27T07:27:22.090Z,273.20
2019-04-27T07:31:36.268Z,253.77
2019-04-27T07:35:49.094Z,256.67
2019-04-27T07:40:01.559Z,251.90
2019-04-27T07:44:17.338Z,252.83
2019-04-27T07:48:28.639Z,253.43
2019-04-27T07:52:40.611Z,249.60
2019-04-27T07:56:50.996Z,251.80
2019-04-27T08:01:03.554Z,247.93
2019-04-27T08:05:14.091Z,251.60
2019-04-27T08:09:26.821Z,261.53
2019-04-27T08:13:37.185Z,248.50
2019-04-27T08:17:49.446Z,243.70
2019-04-27T08:22:01.579Z,253.53
2019-04-27T08:26:16.498Z,246.30
2019-04-27T08:30:34.450Z,273.57
2019-04-27T08:34:44.879Z,265.20
2019-04-27T08:38:55.091Z,254.23
2019-04-27T08:43:05.601Z,257.90
2019-04-27T08:47:17.355Z,251.03
2019-04-27T08:51:29.480Z,270.10
2019-04-27T08:55:43.137Z,255.83
2019-04-27T08:59:56.390Z,257.17
2019-04-27T09:04:11.256Z,246.53
2019-04-27T09:08:21.882Z,249.70
2019-04-27T09:12:53.319Z,248.03
2019-04-27T09:17:09.594Z,253.97
2019-04-27T09:21:20.219Z,252.03
2019-04-27T09:25:30.583Z,252.70
2019-04-27T09:29:42.444Z,251.87
2019-04-27T09:33:55.875Z,252.23
2019-04-27T09:38:07.155Z,254.03
2019-04-27T09:42:17.537Z,257.52
2019-04-27T09:46:30.874Z,249.77
2019-04-27T09:50:42.854Z,249.60
2019-04-27T09:54:57.708Z,253.20
2019-04-27T09:59:08.531Z,257.03
2019-04-27T10:03:24.116Z,257.23
2019-04-27T10:07:35.839Z,247.43
2019-04-27T10:11:51.003Z,252.87
2019-04-27T10:16:01.976Z,250.23
2019-04-27T10:20:12.461Z,260.03
2019-04-27T10:24:22.886Z,265.93
2019-04-27T10:28:37.213Z,278.03
2019-04-27T10:32:47.986Z,258.23
2019-04-27T10:36:58.465Z,248.37
2019-04-27T10:41:10.643Z,253.15
2019-04-27T10:45:21.199Z,270.37
2019-04-27T10:49:33.271Z,249.35
2019-04-27T10:53:45.597Z,248.60
2019-04-27T10:57:55.971Z,248.75
2019-04-27T11:02:06.354Z,246.07
2019-04-27T11:06:21.062Z,261.37
2019-04-27T11:10:31.474Z,250.80
2019-04-27T11:14:41.873Z,246.72
2019-04-27T11:18:52.380Z,246.25
2019-04-27T11:23:09.349Z,245.20
2019-04-27T11:27:15.191Z,251.73
2019-04-27T11:31:26.109Z,255.37
2019-04-27T11:35:50.143Z,240.10
2019-04-27T11:40:00.425Z,244.70
2019-04-27T11:44:11.038Z,245.95
2019-04-27T11:48:21.362Z,248.60
2019-04-27T11:52:31.813Z,244.03
2019-04-27T11:56:42.477Z,259.37
2019-04-27T12:00:55.033Z,250.25
2019-04-27T12:05:08.524Z,237.95
2019-04-27T12:09:18.873Z,238.07
2019-04-27T12:13:29.059Z,242.20
2019-04-27T12:17:39.434Z,240.80
2019-04-27T12:21:50.704Z,233.53
2019-04-27T12:26:01.013Z,253.80
2019-04-27T12:30:13.384Z,250.62
2019-04-27T12:34:25.636Z,245.17
2019-04-27T12:38:36.521Z,253.83
2019-04-27T12:42:47.061Z,245.93
2019-04-27T12:47:02.292Z,240.33
2019-04-27T12:51:09.393Z,252.23
2019-04-27T12:55:36.550Z,252.93
2019-04-27T12:59:57.495Z,242.87
2019-04-27T13:04:08.149Z,244.03
2019-04-27T13:08:18.855Z,245.77
2019-04-27T13:12:29.549Z,242.40
2019-04-27T13:16:39.868Z,235.97
2019-04-27T13:20:50.578Z,252.97
2019-04-27T13:25:00.904Z,241.23
2019-04-27T13:29:11.241Z,241.43
2019-04-27T13:33:21.547Z,238.27
2019-04-27T13:37:36.560Z,237.10
2019-04-27T13:41:47.024Z,235.63
2019-04-27T13:46:08.800Z,234.03
2019-04-27T13:50:23.429Z,248.43
2019-04-27T13:54:33.765Z,249.57
2019-04-27T13:58:45.346Z,243.88
2019-04-27T14:02:55.537Z,245.97
2019-04-27T14:07:05.856Z,240.50
2019-04-27T14:11:18.390Z,237.43
2019-04-27T14:15:28.992Z,237.00
2019-04-27T14:19:39.504Z,243.10
2019-04-27T14:23:49.993Z,258.17
2019-04-27T14:28:00.466Z,244.03
2019-04-27T14:32:11.568Z,245.57
2019-04-27T14:36:22.675Z,238.83
2019-04-27T14:40:33.216Z,245.60
2019-04-27T14:44:43.529Z,240.68
2019-04-27T14:48:53.853Z,244.95
2019-04-27T14:53:04.274Z,241.50
2019-04-27T14:57:14.599Z,241.57
2019-04-27T15:01:24.976Z,248.10
2019-04-27T15:05:35.288Z,247.55
2019-04-27T15:09:49.549Z,239.68
2019-04-27T15:14:00.095Z,237.57
2019-04-27T15:18:09.968Z,239.02
2019-04-27T15:22:23.133Z,239.93
2019-04-27T15:26:33.750Z,239.00
2019-04-27T15:30:51.587Z,249.90
2019-04-27T15:35:10.627Z,247.50
2019-04-27T15:39:26.867Z,241.17
2019-04-27T15:43:38.519Z,243.82
2019-04-27T15:47:54.202Z,236.87
2019-04-27T15:52:00.380Z,244.50
2019-04-27T15:56:11.680Z,246.03
2019-04-27T16:00:23.830Z,242.80
2019-04-27T16:04:34.637Z,240.27
2019-04-27T16:08:47.049Z,236.30
2019-04-27T16:13:06.709Z,239.23
2019-04-27T16:17:11.484Z,240.13
2019-04-27T16:21:21.453Z,239.83
2019-04-27T16:25:39.613Z,248.57
2019-04-27T16:29:43.571Z,238.53
2019-04-27T16:33:58.109Z,258.37
2019-04-27T16:38:26.794Z,243.70
2019-04-27T16:42:35.833Z,248.07
2019-04-27T16:46:46.227Z,237.23
2019-04-27T16:50:59.349Z,243.23
2019-04-27T16:55:08.787Z,239.40
2019-04-27T16:59:39.291Z,239.20
2019-04-27T17:03:31.635Z,240.47
2019-04-27T17:07:41.994Z,236.40
2019-04-27T17:11:52.539Z,234.87
2019-04-27T17:16:18.865Z,240.77
2019-04-27T17:20:29.887Z,238.50
2019-04-27T17:24:46.801Z,250.00
2019-04-27T17:28:59.093Z,241.33
2019-04-27T17:33:22.710Z,238.30
2019-04-27T17:37:33.925Z,229.50
2019-04-27T17:41:49.244Z,229.13
2019-04-27T17:45:57.924Z,229.33
2019-04-27T17:50:09.294Z,237.17
2019-04-27T17:54:19.956Z,247.70
2019-04-27T17:58:30.304Z,251.67
2019-04-27T18:02:42.343Z,236.70
2019-04-27T18:06:55.686Z,241.20
2019-04-27T18:11:04.900Z,245.90
2019-04-27T18:15:16.129Z,235.77
2019-04-27T18:19:31.054Z,233.83
2019-04-27T18:23:45.357Z,229.83
2019-04-27T18:27:58.200Z,235.40
2019-04-27T18:32:08.912Z,235.60
2019-04-27T18:36:19.572Z,237.93
2019-04-27T18:40:32.584Z,243.57
2019-04-27T18:44:41.844Z,242.17
2019-04-27T18:48:54.097Z,247.83
2019-04-27T18:53:08.140Z,236.67
2019-04-27T18:57:18.152Z,236.77
2019-04-27T19:01:28.950Z,240.67
2019-04-27T19:05:40.522Z,238.57
2019-04-27T19:09:50.915Z,238.57
2019-04-27T19:14:01.439Z,253.73
2019-04-27T19:18:11.740Z,237.73
2019-04-27T19:22:22.166Z,239.57
2019-04-27T19:26:43.179Z,240.37
2019-04-27T19:30:55.157Z,250.97
2019-04-27T19:35:06.481Z,239.77
2019-04-27T19:39:18.056Z,237.33
2019-04-27T19:43:28.707Z,241.87
2019-04-27T19:47:39.001Z,230.00
2019-04-27T19:51:49.475Z,237.47
2019-04-27T19:56:02.038Z,237.33
2019-04-27T20:00:30.268Z,241.50
2019-04-27T20:04:42.117Z,236.07
2019-04-27T20:08:54.194Z,236.10
2019-04-27T20:13:04.643Z,228.17
2019-04-27T20:17:14.987Z,236.17
2019-04-27T20:21:25.275Z,232.93
2019-04-27T20:25:35.539Z,233.97
2019-04-27T20:29:45.840Z,233.43
2019-04-27T20:33:57.845Z,227.73
2019-04-27T20:38:08.264Z,234.97
2019-04-27T20:42:21.168Z,232.22
2019-04-27T20:46:31.610Z,226.80
2019-04-27T20:50:41.900Z,234.27
2019-04-27T20:54:52.245Z,231.23
2019-04-27T20:59:02.651Z,234.47
2019-04-27T21:03:20.932Z,234.40
2019-04-27T21:07:52.778Z,221.97
2019-04-27T21:12:03.265Z,221.70
2019-04-27T21:16:13.563Z,226.93
2019-04-27T21:20:23.952Z,229.53
2019-04-27T21:24:34.319Z,233.13
2019-04-27T21:28:44.654Z,229.57
2019-04-27T21:32:55.012Z,230.43
2019-04-27T21:37:05.358Z,227.63
2019-04-27T21:41:16.073Z,227.27
2019-04-27T21:45:26.587Z,229.07
2019-04-27T21:49:37.176Z,232.47
2019-04-27T21:54:02.693Z,234.33
2019-04-27T21:58:13.709Z,227.37
2019-04-27T22:02:24.109Z,231.40
2019-04-27T22:06:35.221Z,240.93
2019-04-27T22:10:45.765Z,230.47
2019-04-27T22:14:56.251Z,220.10
2019-04-27T22:19:07.285Z,231.63
2019-04-27T22:23:25.248Z,233.00
2019-04-27T22:27:35.669Z,230.60
2019-04-27T22:31:46.028Z,231.83
2019-04-27T22:35:56.431Z,228.97
2019-04-27T22:40:23.999Z,224.77
2019-04-27T22:44:38.923Z,225.63
2019-04-27T22:48:49.556Z,232.97
2019-04-27T22:53:00.232Z,232.77
2019-04-27T22:57:12.450Z,229.53
2019-04-27T23:01:33.323Z,234.80
2019-04-27T23:05:43.792Z,229.20
2019-04-27T23:09:54.376Z,230.93
2019-04-27T23:14:05.257Z,227.03
2019-04-27T23:18:15.732Z,232.77
2019-04-27T23:22:26.147Z,232.20
2019-04-27T23:26:36.447Z,230.23
2019-04-27T23:31:06.565Z,230.63
2019-04-27T23:35:16.865Z,226.37
2019-04-27T23:39:27.971Z,229.07
2019-04-27T23:43:38.400Z,227.47
2019-04-27T23:47:48.699Z,238.20
2019-04-27T23:52:03.124Z,226.37
2019-04-27T23:56:13.437Z,234.57
